createdAt,value
2022-09-11T00:02:23.288Z,46.59
2022-09-11T00:04:50.999Z,47.30
2022-09-11T00:07:18.207Z,47.13
2022-09-11T00:09:45.418Z,47.26
2022-09-11T00:12:12.853Z,47.24
2022-09-11T00:14:40.755Z,47.17
2022-09-11T00:17:07.915Z,47.69
2022-09-11T00:19:36.362Z,47.25
2022-09-11T00:22:03.563Z,47.44
2022-09-11T00:24:30.801Z,47.29
2022-09-11T00:26:58.269Z,47.40
2022-09-11T00:29:25.597Z,46.84
2022-09-11T00:31:52.917Z,47.40
2022-09-11T00:34:20.430Z,47.07
2022-09-11T00:36:48.401Z,47.76
2022-09-11T00:39:15.740Z,48.00
2022-09-11T00:41:44.808Z,47.89
2022-09-11T00:44:12.460Z,47.87
2022-09-11T00:46:49.208Z,47.31
2022-09-11T00:49:30.580Z,47.71
2022-09-11T00:51:58.601Z,48.19
2022-09-11T00:54:31.070Z,47.59
2022-09-11T00:56:58.851Z,47.83
2022-09-11T00:59:27.040Z,48.42
2022-09-11T01:01:54.321Z,47.62
2022-09-11T01:04:21.921Z,48.66
2022-09-11T01:06:56.575Z,48.12
2022-09-11T01:09:24.750Z,47.69
2022-09-11T01:11:58.553Z,47.47
2022-09-11T01:14:33.681Z,47.78
2022-09-11T01:17:20.653Z,47.80
2022-09-11T01:20:06.677Z,48.65
2022-09-11T01:22:49.995Z,48.77
2022-09-11T01:25:28.371Z,48.41
2022-09-11T01:28:00.863Z,48.61
2022-09-11T01:30:29.204Z,48.31
2022-09-11T01:33:00.661Z,48.56
2022-09-11T01:35:31.705Z,48.29
2022-09-11T01:38:07.050Z,48.27
2022-09-11T01:40:40.727Z,48.60
2022-09-11T01:43:13.842Z,48.46
2022-09-11T01:45:45.515Z,48.71
2022-09-11T01:48:13.926Z,49.52
2022-09-11T01:50:41.165Z,50.12
2022-09-11T01:53:09.739Z,49.60
2022-09-11T01:55:38.735Z,49.11
2022-09-11T01:58:08.103Z,49.39
2022-09-11T02:00:36.760Z,50.43
2022-09-11T02:03:08.577Z,49.72
2022-09-11T02:05:44.058Z,50.56
2022-09-11T02:08:17.153Z,51.33
2022-09-11T02:10:51.993Z,52.24
2022-09-11T02:13:19.459Z,51.83
2022-09-11T02:15:48.957Z,51.95
2022-09-11T02:18:27.001Z,51.75
2022-09-11T02:20:54.529Z,51.37
2022-09-11T02:23:21.774Z,50.57
2022-09-11T02:25:52.634Z,52.23
2022-09-11T02:28:20.120Z,51.57
2022-09-11T02:30:47.414Z,52.30
2022-09-11T02:33:31.553Z,51.02
2022-09-11T02:36:03.552Z,51.41
2022-09-11T02:38:33.803Z,51.90
2022-09-11T02:41:20.625Z,51.51
2022-09-11T02:43:55.509Z,50.92
2022-09-11T02:46:41.883Z,50.63
2022-09-11T02:49:10.531Z,50.40
2022-09-11T02:51:39.103Z,49.97
2022-09-11T02:54:11.964Z,50.41
2022-09-11T02:56:41.347Z,50.27
2022-09-11T02:59:29.021Z,50.27
2022-09-11T03:01:59.105Z,50.76
2022-09-11T03:04:26.500Z,50.76
2022-09-11T03:06:53.979Z,53.20
2022-09-11T03:09:21.484Z,52.29
2022-09-11T03:11:50.171Z,52.23
2022-09-11T03:14:17.600Z,51.15
2022-09-11T03:16:45.667Z,50.92
2022-09-11T03:19:13.392Z,51.71
2022-09-11T03:21:40.617Z,51.65
2022-09-11T03:24:09.809Z,51.00
2022-09-11T03:26:37.208Z,51.01
2022-09-11T03:29:04.705Z,51.18
2022-09-11T03:31:34.470Z,51.43
2022-09-11T03:34:04.638Z,52.64
2022-09-11T03:36:34.377Z,52.45
2022-09-11T03:39:02.030Z,52.05
2022-09-11T03:41:30.373Z,51.63
2022-09-11T03:43:57.841Z,52.93
2022-09-11T03:46:25.639Z,51.92
2022-09-11T03:48:53.341Z,52.07
2022-09-11T03:51:21.214Z,52.08
2022-09-11T03:53:48.439Z,51.11
2022-09-11T03:56:16.104Z,52.13
2022-09-11T03:58:44.722Z,51.77
2022-09-11T04:01:13.325Z,52.46
2022-09-11T04:03:41.575Z,53.75
2022-09-11T04:06:10.189Z,53.88
2022-09-11T04:08:39.245Z,53.83
2022-09-11T04:11:06.903Z,53.70
2022-09-11T04:13:36.425Z,53.04
2022-09-11T04:16:08.272Z,52.48
2022-09-11T04:18:37.818Z,51.80
2022-09-11T04:21:05.566Z,51.71
2022-09-11T04:23:34.085Z,51.87
2022-09-11T04:26:01.693Z,52.05
2022-09-11T04:28:29.528Z,51.26
2022-09-11T04:30:57.486Z,50.96
2022-09-11T04:33:25.101Z,50.76
2022-09-11T04:35:52.422Z,50.80
2022-09-11T04:38:21.370Z,50.77
2022-09-11T04:40:49.422Z,50.51
2022-09-11T04:43:17.805Z,50.28
2022-09-11T04:45:45.165Z,50.60
2022-09-11T04:48:13.270Z,50.27
2022-09-11T04:50:41.333Z,50.38
2022-09-11T04:53:09.677Z,50.38
2022-09-11T04:55:37.312Z,50.46
2022-09-11T04:58:05.651Z,50.54
2022-09-11T05:00:33.817Z,50.51
2022-09-11T05:03:01.957Z,50.48
2022-09-11T05:05:29.600Z,50.29
2022-09-11T05:07:56.960Z,50.92
2022-09-11T05:10:27.221Z,50.48
2022-09-11T05:12:54.638Z,50.40
2022-09-11T05:15:21.943Z,50.03
2022-09-11T05:17:50.782Z,50.27
2022-09-11T05:20:18.810Z,50.27
2022-09-11T05:22:47.099Z,50.26
2022-09-11T05:25:14.650Z,50.13
2022-09-11T05:27:41.872Z,49.93
2022-09-11T05:30:09.432Z,49.77
2022-09-11T05:32:37.744Z,49.77
2022-09-11T05:35:05.350Z,49.44
2022-09-11T05:37:32.677Z,49.52
2022-09-11T05:40:00.601Z,49.74
2022-09-11T05:42:28.669Z,49.44
2022-09-11T05:44:56.213Z,49.27
2022-09-11T05:47:24.802Z,49.34
2022-09-11T05:49:52.505Z,49.47
2022-09-11T05:52:20.461Z,49.48
2022-09-11T05:54:48.026Z,49.75
2022-09-11T05:57:15.421Z,48.62
2022-09-11T05:59:43.103Z,49.15
2022-09-11T06:02:11.104Z,49.55
2022-09-11T06:04:38.929Z,49.50
2022-09-11T06:07:06.614Z,50.38
2022-09-11T06:09:34.819Z,49.16
2022-09-11T06:12:02.520Z,48.81
2022-09-11T06:14:29.864Z,49.59
2022-09-11T06:16:57.322Z,48.88
2022-09-11T06:19:25.496Z,49.58
2022-09-11T06:21:52.850Z,49.34
2022-09-11T06:24:21.043Z,49.09
2022-09-11T06:26:49.887Z,49.97
2022-09-11T06:29:17.601Z,50.77
2022-09-11T06:31:45.992Z,51.92
2022-09-11T06:34:14.004Z,50.79
2022-09-11T06:36:45.167Z,50.65
2022-09-11T06:39:14.323Z,50.99
2022-09-11T06:41:42.140Z,51.89
2022-09-11T06:44:09.991Z,51.73
2022-09-11T06:46:37.716Z,51.43
2022-09-11T06:49:06.478Z,51.84
2022-09-11T06:51:47.976Z,52.88
2022-09-11T06:54:16.173Z,52.75
2022-09-11T06:56:45.222Z,52.28
2022-09-11T06:59:14.506Z,52.16
2022-09-11T07:01:44.509Z,51.09
2022-09-11T07:04:12.218Z,50.86
2022-09-11T07:06:39.581Z,51.50
2022-09-11T07:09:07.072Z,52.97
2022-09-11T07:11:34.844Z,52.63
2022-09-11T07:14:05.767Z,52.11
2022-09-11T07:16:34.080Z,52.55
2022-09-11T07:19:07.633Z,52.61
2022-09-11T07:21:35.570Z,52.45
2022-09-11T07:24:03.998Z,50.76
2022-09-11T07:26:32.701Z,51.38
2022-09-11T07:29:00.628Z,51.16
2022-09-11T07:31:32.804Z,50.83
2022-09-11T07:34:00.331Z,51.67
2022-09-11T07:36:32.684Z,51.00
2022-09-11T07:39:00.307Z,49.89
2022-09-11T07:41:29.387Z,51.19
2022-09-11T07:43:59.794Z,51.59
2022-09-11T07:46:27.814Z,50.20
2022-09-11T07:48:55.465Z,49.31
2022-09-11T07:51:23.149Z,49.32
2022-09-11T07:53:51.454Z,49.25
2022-09-11T07:56:20.088Z,49.65
2022-09-11T07:58:48.037Z,48.64
2022-09-11T08:01:17.311Z,49.85
2022-09-11T08:03:45.632Z,48.25
2022-09-11T08:06:17.839Z,48.89
2022-09-11T08:08:51.891Z,48.64
2022-09-11T08:11:19.768Z,50.07
2022-09-11T08:13:53.734Z,49.36
2022-09-11T08:16:22.674Z,49.56
2022-09-11T08:18:52.107Z,48.59
2022-09-11T08:21:19.503Z,49.43
2022-09-11T08:23:47.111Z,48.97
2022-09-11T08:26:21.888Z,48.91
2022-09-11T08:28:52.195Z,49.51
2022-09-11T08:31:20.569Z,48.44
2022-09-11T08:33:49.375Z,48.73
2022-09-11T08:36:17.187Z,49.55
2022-09-11T08:38:46.023Z,48.64
2022-09-11T08:41:28.133Z,49.72
2022-09-11T08:43:56.858Z,49.08
2022-09-11T08:46:25.351Z,49.17
2022-09-11T08:49:02.325Z,48.19
2022-09-11T08:51:31.516Z,48.42
2022-09-11T08:53:59.044Z,48.55
2022-09-11T08:56:28.638Z,50.72
2022-09-11T08:59:02.601Z,49.95
2022-09-11T09:01:50.217Z,50.52
2022-09-11T09:04:39.317Z,50.63
2022-09-11T09:07:10.208Z,50.50
2022-09-11T09:09:41.063Z,48.81
2022-09-11T09:12:21.029Z,47.94
2022-09-11T09:15:00.936Z,48.29
2022-09-11T09:17:45.424Z,47.79
2022-09-11T09:20:13.741Z,48.00
2022-09-11T09:22:49.061Z,48.48
2022-09-11T09:25:17.903Z,47.30
2022-09-11T09:27:46.570Z,46.33
2022-09-11T09:30:18.643Z,46.00
2022-09-11T09:32:51.935Z,46.14
2022-09-11T09:35:23.402Z,46.98
2022-09-11T09:37:51.639Z,45.99
2022-09-11T09:40:19.151Z,46.83
2022-09-11T09:42:47.507Z,46.26
2022-09-11T09:45:24.889Z,47.49
2022-09-11T09:47:52.136Z,47.56
2022-09-11T09:50:20.739Z,45.79
2022-09-11T09:52:48.945Z,46.59
2022-09-11T09:55:17.689Z,45.80
2022-09-11T09:57:45.262Z,48.59
2022-09-11T10:00:17.924Z,46.44
2022-09-11T10:02:49.110Z,46.53
2022-09-11T10:05:18.215Z,45.80
2022-09-11T10:07:49.495Z,45.47
2022-09-11T10:10:21.544Z,45.99
2022-09-11T10:12:49.113Z,44.79
2022-09-11T10:15:22.866Z,44.60
2022-09-11T10:17:53.447Z,46.27
2022-09-11T10:20:26.757Z,45.42
2022-09-11T10:22:54.796Z,45.32
2022-09-11T10:25:23.089Z,44.74
2022-09-11T10:27:56.285Z,45.91
2022-09-11T10:30:27.916Z,46.08
2022-09-11T10:32:55.729Z,47.09
2022-09-11T10:35:27.090Z,46.77
2022-09-11T10:38:01.193Z,46.08
2022-09-11T10:40:28.961Z,47.20
2022-09-11T10:42:56.291Z,48.07
2022-09-11T10:45:23.614Z,47.75
2022-09-11T10:47:51.143Z,47.78
2022-09-11T10:50:18.563Z,47.40
2022-09-11T10:52:48.915Z,47.81
2022-09-11T10:55:17.545Z,46.96
2022-09-11T10:57:50.340Z,47.07
2022-09-11T11:00:17.822Z,45.58
2022-09-11T11:02:46.067Z,46.18
2022-09-11T11:05:27.089Z,45.49
2022-09-11T11:08:07.601Z,45.52
2022-09-11T11:10:47.161Z,45.25
2022-09-11T11:13:15.676Z,45.31
2022-09-11T11:15:57.634Z,44.95
2022-09-11T11:18:38.803Z,44.74
2022-09-11T11:21:12.965Z,44.03
2022-09-11T11:24:06.784Z,44.07
2022-09-11T11:26:43.256Z,43.89
2022-09-11T11:29:22.934Z,45.37
2022-09-11T11:31:51.297Z,42.58
2022-09-11T11:34:29.190Z,41.48
2022-09-11T11:37:13.242Z,41.09
2022-09-11T11:39:47.652Z,41.74
2022-09-11T11:42:17.330Z,40.65
2022-09-11T11:44:52.332Z,42.09
2022-09-11T11:47:20.969Z,43.40
2022-09-11T11:49:51.684Z,42.85
2022-09-11T11:52:31.277Z,43.58
2022-09-11T11:55:03.089Z,43.56
2022-09-11T11:57:33.166Z,42.83
2022-09-11T12:00:04.172Z,42.05
2022-09-11T12:02:43.758Z,41.94
2022-09-11T12:05:12.064Z,42.43
2022-09-11T12:07:39.371Z,42.31
2022-09-11T12:10:07.464Z,41.77
2022-09-11T12:12:35.647Z,42.95
2022-09-11T12:15:06.970Z,47.12
2022-09-11T12:17:34.981Z,47.94
2022-09-11T12:20:11.625Z,50.28
2022-09-11T12:22:49.724Z,53.86
2022-09-11T12:25:20.010Z,56.51
2022-09-11T12:27:54.419Z,56.24
2022-09-11T12:30:23.431Z,58.98
2022-09-11T12:32:51.205Z,57.34
2022-09-11T12:35:38.265Z,55.43
2022-09-11T12:38:13.352Z,55.42
2022-09-11T12:40:57.350Z,57.81
2022-09-11T12:43:45.720Z,56.84
2022-09-11T12:46:21.856Z,54.78
2022-09-11T12:49:11.391Z,57.85
2022-09-11T12:51:42.363Z,56.52
2022-09-11T12:54:21.960Z,54.97
2022-09-11T12:57:08.053Z,55.68
2022-09-11T12:59:39.724Z,54.44
2022-09-11T13:02:25.962Z,53.49
2022-09-11T13:04:53.881Z,53.33
2022-09-11T13:07:30.328Z,52.90
2022-09-11T13:09:58.564Z,54.17
2022-09-11T13:12:25.861Z,55.25
2022-09-11T13:14:53.801Z,55.58
2022-09-11T13:17:25.974Z,55.33
2022-09-11T13:19:54.635Z,55.00
2022-09-11T13:22:25.213Z,55.84
2022-09-11T13:24:57.651Z,54.49
2022-09-11T13:27:26.577Z,54.80
2022-09-11T13:29:54.977Z,54.23
2022-09-11T13:32:22.510Z,56.41
2022-09-11T13:34:50.572Z,55.65
2022-09-11T13:37:45.561Z,54.44
2022-09-11T13:40:22.426Z,56.82
2022-09-11T13:42:50.035Z,54.92
2022-09-11T13:45:19.046Z,54.68
2022-09-11T13:47:46.458Z,54.09
2022-09-11T13:50:14.701Z,54.15
2022-09-11T13:52:43.137Z,53.90
2022-09-11T13:55:11.991Z,52.89
2022-09-11T13:57:51.605Z,53.51
2022-09-11T14:00:38.733Z,52.09
2022-09-11T14:03:07.014Z,51.95
2022-09-11T14:05:35.117Z,52.31
2022-09-11T14:08:02.495Z,50.98
2022-09-11T14:10:34.465Z,50.25
2022-09-11T14:13:05.135Z,50.91
2022-09-11T14:15:35.341Z,51.13
2022-09-11T14:18:02.901Z,50.07
2022-09-11T14:20:30.295Z,50.12
2022-09-11T14:22:59.647Z,50.31
2022-09-11T14:25:26.906Z,48.06
2022-09-11T14:27:54.157Z,48.49
2022-09-11T14:30:30.658Z,47.98
2022-09-11T14:33:19.321Z,48.73
2022-09-11T14:35:47.025Z,47.74
2022-09-11T14:38:14.561Z,48.61
2022-09-11T14:40:47.837Z,46.85
2022-09-11T14:43:17.575Z,46.78
2022-09-11T14:45:44.871Z,47.68
2022-09-11T14:48:12.325Z,46.98
2022-09-11T14:50:39.868Z,47.24
2022-09-11T14:53:09.515Z,45.80
2022-09-11T14:55:36.742Z,45.14
2022-09-11T14:58:04.233Z,45.17
2022-09-11T15:00:31.877Z,44.93
2022-09-11T15:03:00.368Z,44.72
2022-09-11T15:05:28.149Z,44.14
2022-09-11T15:07:55.897Z,43.87
2022-09-11T15:10:23.152Z,44.44
2022-09-11T15:12:50.693Z,43.93
2022-09-11T15:15:19.265Z,43.83
2022-09-11T15:17:46.553Z,43.42
2022-09-11T15:20:14.121Z,44.30
2022-09-11T15:22:41.381Z,44.22
2022-09-11T15:25:08.646Z,43.33
2022-09-11T15:27:36.585Z,44.34
2022-09-11T15:30:04.331Z,44.00
2022-09-11T15:32:32.988Z,44.53
2022-09-11T15:35:00.825Z,43.80
2022-09-11T15:37:28.154Z,45.91
2022-09-11T15:39:55.792Z,45.83
2022-09-11T15:42:23.466Z,47.36
2022-09-11T15:44:51.401Z,44.67
2022-09-11T15:47:18.638Z,44.47
2022-09-11T15:49:47.917Z,45.20
2022-09-11T15:52:15.256Z,45.02
2022-09-11T15:54:42.909Z,44.08
2022-09-11T15:57:10.455Z,45.33
2022-09-11T15:59:37.719Z,44.41
2022-09-11T16:02:05.078Z,46.09
2022-09-11T16:04:33.388Z,45.25
2022-09-11T16:07:00.805Z,45.10
2022-09-11T16:09:29.190Z,46.07
2022-09-11T16:11:59.395Z,45.98
2022-09-11T16:14:29.228Z,45.44
2022-09-11T16:16:57.979Z,46.62
2022-09-11T16:19:27.983Z,45.43
2022-09-11T16:22:00.538Z,46.09
2022-09-11T16:24:28.692Z,45.07
2022-09-11T16:26:56.198Z,46.34
2022-09-11T16:29:24.237Z,47.39
2022-09-11T16:31:51.794Z,46.52
2022-09-11T16:34:19.046Z,46.00
2022-09-11T16:36:46.446Z,46.28
2022-09-11T16:39:15.814Z,47.38
2022-09-11T16:41:43.473Z,46.11
2022-09-11T16:44:12.042Z,46.41
2022-09-11T16:46:40.805Z,46.79
2022-09-11T16:49:08.870Z,46.06
2022-09-11T16:51:36.125Z,47.76
2022-09-11T16:54:04.319Z,46.91
2022-09-11T16:56:31.724Z,46.94
2022-09-11T16:58:59.053Z,46.53
2022-09-11T17:01:27.035Z,49.00
2022-09-11T17:03:55.435Z,48.50
2022-09-11T17:06:24.073Z,48.33
2022-09-11T17:08:51.749Z,49.20
2022-09-11T17:11:20.105Z,49.29
2022-09-11T17:13:47.477Z,48.68
2022-09-11T17:16:25.645Z,48.54
2022-09-11T17:18:54.047Z,49.01
2022-09-11T17:21:24.129Z,48.60
2022-09-11T17:23:52.554Z,48.31
2022-09-11T17:26:19.895Z,48.45
2022-09-11T17:28:48.312Z,48.95
2022-09-11T17:31:16.345Z,48.69
2022-09-11T17:33:45.501Z,48.79
2022-09-11T17:36:14.765Z,48.75
2022-09-11T17:38:42.172Z,48.70
2022-09-11T17:41:09.542Z,49.40
2022-09-11T17:43:37.874Z,48.78
2022-09-11T17:46:06.379Z,49.77
2022-09-11T17:48:33.954Z,49.44
2022-09-11T17:51:02.690Z,49.87
2022-09-11T17:53:37.696Z,49.54
2022-09-11T17:56:07.230Z,49.51
2022-09-11T17:58:34.737Z,50.44
2022-09-11T18:01:02.920Z,49.88
2022-09-11T18:03:31.763Z,51.79
2022-09-11T18:05:59.328Z,51.50
2022-09-11T18:08:27.105Z,51.09
2022-09-11T18:10:59.739Z,50.49
2022-09-11T18:13:27.487Z,50.57
2022-09-11T18:15:56.391Z,52.60
2022-09-11T18:18:23.857Z,52.65
2022-09-11T18:20:54.084Z,52.91
2022-09-11T18:23:23.158Z,53.88
2022-09-11T18:25:51.464Z,53.56
2022-09-11T18:28:20.038Z,53.17
2022-09-11T18:30:49.385Z,53.49
2022-09-11T18:33:17.233Z,53.07
2022-09-11T18:35:46.653Z,53.79
2022-09-11T18:38:14.296Z,53.26
2022-09-11T18:40:41.565Z,53.42
2022-09-11T18:43:09.412Z,52.82
2022-09-11T18:45:37.065Z,52.61
2022-09-11T18:48:05.446Z,51.97
2022-09-11T18:50:32.734Z,52.29
2022-09-11T18:53:00.443Z,52.81
2022-09-11T18:55:29.085Z,51.35
2022-09-11T18:57:57.240Z,51.74
2022-09-11T19:00:24.760Z,51.56
2022-09-11T19:02:54.562Z,51.37
2022-09-11T19:05:21.785Z,51.79
2022-09-11T19:07:49.526Z,52.54
2022-09-11T19:10:17.268Z,51.54
2022-09-11T19:12:46.899Z,51.12
2022-09-11T19:15:14.450Z,52.92
2022-09-11T19:17:42.145Z,52.35
2022-09-11T19:20:11.158Z,52.48
2022-09-11T19:22:38.669Z,51.80
2022-09-11T19:25:08.042Z,52.69
2022-09-11T19:27:35.436Z,53.32
2022-09-11T19:30:03.626Z,51.60
2022-09-11T19:32:31.313Z,51.33
2022-09-11T19:35:00.219Z,51.58
2022-09-11T19:37:28.480Z,51.60
2022-09-11T19:39:57.221Z,51.38
2022-09-11T19:42:25.051Z,51.88
2022-09-11T19:44:56.210Z,51.59
2022-09-11T19:47:25.030Z,52.64
2022-09-11T19:49:52.970Z,53.09
2022-09-11T19:52:20.277Z,53.13
2022-09-11T19:54:47.537Z,52.58
2022-09-11T19:57:15.059Z,52.60
2022-09-11T19:59:42.353Z,54.21
2022-09-11T20:02:10.022Z,54.76
2022-09-11T20:04:37.601Z,54.05
2022-09-11T20:07:05.511Z,54.79
2022-09-11T20:09:33.046Z,54.70
2022-09-11T20:12:01.537Z,54.52
2022-09-11T20:14:29.591Z,54.21
2022-09-11T20:16:56.862Z,54.44
2022-09-11T20:19:24.364Z,54.44
2022-09-11T20:21:51.685Z,55.88
2022-09-11T20:24:19.821Z,54.82
2022-09-11T20:26:47.361Z,54.09
2022-09-11T20:29:15.252Z,53.98
2022-09-11T20:31:47.354Z,53.88
2022-09-11T20:34:15.999Z,54.41
2022-09-11T20:36:43.304Z,54.98
2022-09-11T20:39:11.094Z,54.54
2022-09-11T20:41:39.335Z,54.95
2022-09-11T20:44:06.646Z,53.20
2022-09-11T20:46:33.909Z,53.07
2022-09-11T20:49:03.029Z,52.87
2022-09-11T20:51:31.011Z,53.58
2022-09-11T20:53:58.286Z,52.89
2022-09-11T20:56:25.839Z,52.67
2022-09-11T20:58:53.122Z,52.92
2022-09-11T21:01:21.456Z,54.99
2022-09-11T21:03:50.146Z,53.18
2022-09-11T21:06:20.052Z,52.45
2022-09-11T21:08:51.402Z,53.73
2022-09-11T21:11:18.869Z,54.62
2022-09-11T21:13:46.323Z,55.66
2022-09-11T21:16:14.663Z,54.53
2022-09-11T21:18:45.891Z,53.66
2022-09-11T21:21:13.430Z,53.62
2022-09-11T21:23:40.690Z,54.10
2022-09-11T21:26:11.545Z,54.69
2022-09-11T21:28:39.168Z,54.03
2022-09-11T21:31:06.636Z,54.40
2022-09-11T21:33:34.270Z,53.17
2022-09-11T21:36:01.890Z,53.79
2022-09-11T21:38:29.629Z,54.70
2022-09-11T21:40:57.563Z,55.15
2022-09-11T21:43:25.341Z,53.06
2022-09-11T21:45:52.667Z,53.60
2022-09-11T21:48:19.907Z,54.25
2022-09-11T21:50:47.479Z,53.21
2022-09-11T21:53:14.793Z,53.45
2022-09-11T21:55:43.275Z,53.82
2022-09-11T21:58:20.261Z,54.36
2022-09-11T22:00:48.338Z,54.11
2022-09-11T22:03:16.713Z,53.29
2022-09-11T22:05:45.087Z,56.59
2022-09-11T22:08:13.242Z,54.30
2022-09-11T22:10:47.814Z,54.28
2022-09-11T22:13:15.480Z,55.84
2022-09-11T22:15:43.719Z,56.12
2022-09-11T22:18:11.016Z,56.67
2022-09-11T22:20:38.537Z,55.86
2022-09-11T22:23:06.176Z,55.63
2022-09-11T22:25:36.662Z,57.05
2022-09-11T22:28:04.336Z,56.25
2022-09-11T22:30:32.119Z,57.47
2022-09-11T22:33:00.038Z,57.12
2022-09-11T22:35:28.850Z,55.25
2022-09-11T22:37:56.393Z,54.75
2022-09-11T22:40:23.754Z,55.00
2022-09-11T22:42:51.664Z,55.97
2022-09-11T22:45:23.233Z,58.98
2022-09-11T22:47:50.469Z,56.48
2022-09-11T22:50:17.909Z,57.98
2022-09-11T22:52:45.485Z,55.96
2022-09-11T22:55:12.713Z,54.75
2022-09-11T22:57:40.118Z,54.05
2022-09-11T23:00:10.326Z,55.84
2022-09-11T23:02:38.120Z,56.97
2022-09-11T23:05:24.312Z,55.61
2022-09-11T23:07:52.191Z,56.18
2022-09-11T23:10:23.729Z,55.35
2022-09-11T23:12:51.654Z,55.29
2022-09-11T23:15:19.305Z,54.92
2022-09-11T23:17:46.962Z,55.22
2022-09-11T23:20:14.210Z,55.16
2022-09-11T23:22:41.807Z,56.11
2022-09-11T23:25:09.281Z,55.31
2022-09-11T23:27:36.547Z,56.46
2022-09-11T23:30:04.455Z,56.61
2022-09-11T23:32:31.745Z,56.68
2022-09-11T23:34:59.013Z,57.49
2022-09-11T23:37:26.574Z,58.12
2022-09-11T23:39:53.828Z,57.84
2022-09-11T23:42:21.102Z,59.14
2022-09-11T23:44:48.576Z,58.21
2022-09-11T23:47:15.992Z,57.66
2022-09-11T23:49:43.708Z,58.50
2022-09-11T23:52:11.167Z,60.11
2022-09-11T23:54:38.388Z,59.38
2022-09-11T23:57:05.872Z,59.78
2022-09-11T23:59:36.095Z,59.45
